sensor_id;sensor_type;location;lat;lon;timestamp;temperature;humidity
30999;DHT22;20549;50.042;8.968;2024-01-16T00:01:43;3.40;80.70
30999;DHT22;20549;50.042;8.968;2024-01-16T00:04:10;3.40;80.90
30999;DHT22;20549;50.042;8.968;2024-01-16T00:06:42;3.40;81.20
30999;DHT22;20549;50.042;8.968;2024-01-16T00:09:08;3.40;81.50
30999;DHT22;20549;50.042;8.968;2024-01-16T00:11:44;3.40;81.80
30999;DHT22;20549;50.042;8.968;2024-01-16T00:14:01;3.40;82.00
30999;DHT22;20549;50.042;8.968;2024-01-16T00:16:28;3.40;82.00
30999;DHT22;20549;50.042;8.968;2024-01-16T00:18:55;3.40;82.10
30999;DHT22;20549;50.042;8.968;2024-01-16T00:21:21;3.40;82.10
30999;DHT22;20549;50.042;8.968;2024-01-16T00:23:48;3.40;82.20
30999;DHT22;20549;50.042;8.968;2024-01-16T00:26:23;3.40;82.10
30999;DHT22;20549;50.042;8.968;2024-01-16T00:28:49;3.40;82.00
30999;DHT22;20549;50.042;8.968;2024-01-16T00:31:16;3.40;81.90
30999;DHT22;20549;50.042;8.968;2024-01-16T00:33:43;3.40;82.60
30999;DHT22;20549;50.042;8.968;2024-01-16T00:36:09;3.40;82.10
30999;DHT22;20549;50.042;8.968;2024-01-16T00:38:36;3.30;82.10
30999;DHT22;20549;50.042;8.968;2024-01-16T00:41:02;3.30;82.10
30999;DHT22;20549;50.042;8.968;2024-01-16T00:43:29;3.30;82.80
30999;DHT22;20549;50.042;8.968;2024-01-16T00:45:56;3.30;82.10
30999;DHT22;20549;50.042;8.968;2024-01-16T00:48:22;3.30;82.10
30999;DHT22;20549;50.042;8.968;2024-01-16T00:50:49;3.30;82.60
30999;DHT22;20549;50.042;8.968;2024-01-16T00:53:18;3.30;82.90
30999;DHT22;20549;50.042;8.968;2024-01-16T00:55:45;3.30;83.20
30999;DHT22;20549;50.042;8.968;2024-01-16T00:58:11;3.30;83.40
30999;DHT22;20549;50.042;8.968;2024-01-16T01:00:38;3.40;83.60
30999;DHT22;20549;50.042;8.968;2024-01-16T01:03:04;3.40;83.70
30999;DHT22;20549;50.042;8.968;2024-01-16T01:05:31;3.50;83.90
30999;DHT22;20549;50.042;8.968;2024-01-16T01:07:58;3.50;83.70
30999;DHT22;20549;50.042;8.968;2024-01-16T01:10:24;3.60;83.50
30999;DHT22;20549;50.042;8.968;2024-01-16T01:12:51;3.60;83.10
30999;DHT22;20549;50.042;8.968;2024-01-16T01:15:20;3.70;82.90
30999;DHT22;20549;50.042;8.968;2024-01-16T01:17:49;3.60;82.50
30999;DHT22;20549;50.042;8.968;2024-01-16T01:20:17;3.60;82.30
30999;DHT22;20549;50.042;8.968;2024-01-16T01:22:43;3.50;82.10
30999;DHT22;20549;50.042;8.968;2024-01-16T01:25:09;3.50;82.00
30999;DHT22;20549;50.042;8.968;2024-01-16T01:27:36;3.40;81.80
30999;DHT22;20549;50.042;8.968;2024-01-16T01:30:02;3.40;81.80
30999;DHT22;20549;50.042;8.968;2024-01-16T01:32:29;3.30;81.90
30999;DHT22;20549;50.042;8.968;2024-01-16T01:34:55;3.20;81.90
30999;DHT22;20549;50.042;8.968;2024-01-16T01:37:22;3.20;82.10
30999;DHT22;20549;50.042;8.968;2024-01-16T01:39:48;3.10;81.90
30999;DHT22;20549;50.042;8.968;2024-01-16T01:42:15;3.00;81.90
30999;DHT22;20549;50.042;8.968;2024-01-16T01:44:42;3.00;82.10
30999;DHT22;20549;50.042;8.968;2024-01-16T01:47:08;2.90;82.20
30999;DHT22;20549;50.042;8.968;2024-01-16T01:49:35;2.80;82.20
30999;DHT22;20549;50.042;8.968;2024-01-16T01:52:02;2.80;82.40
30999;DHT22;20549;50.042;8.968;2024-01-16T01:54:28;2.70;82.50
30999;DHT22;20549;50.042;8.968;2024-01-16T01:56:55;2.70;82.70
30999;DHT22;20549;50.042;8.968;2024-01-16T01:59:21;2.70;83.00
30999;DHT22;20549;50.042;8.968;2024-01-16T02:01:48;2.60;83.10
30999;DHT22;20549;50.042;8.968;2024-01-16T02:04:14;2.60;83.20
30999;DHT22;20549;50.042;8.968;2024-01-16T02:06:41;2.60;83.50
30999;DHT22;20549;50.042;8.968;2024-01-16T02:09:08;2.60;83.50
30999;DHT22;20549;50.042;8.968;2024-01-16T02:11:34;2.50;83.50
30999;DHT22;20549;50.042;8.968;2024-01-16T02:14:01;2.50;83.60
30999;DHT22;20549;50.042;8.968;2024-01-16T02:16:34;2.40;83.80
30999;DHT22;20549;50.042;8.968;2024-01-16T02:18:54;2.50;84.10
30999;DHT22;20549;50.042;8.968;2024-01-16T02:21:22;2.40;84.20
30999;DHT22;20549;50.042;8.968;2024-01-16T02:23:47;2.50;84.60
30999;DHT22;20549;50.042;8.968;2024-01-16T02:26:19;2.50;84.70
30999;DHT22;20549;50.042;8.968;2024-01-16T02:28:46;2.50;84.90
30999;DHT22;20549;50.042;8.968;2024-01-16T02:31:12;2.50;85.00
30999;DHT22;20549;50.042;8.968;2024-01-16T02:33:39;2.50;85.10
30999;DHT22;20549;50.042;8.968;2024-01-16T02:36:06;2.60;85.00
30999;DHT22;20549;50.042;8.968;2024-01-16T02:38:32;2.60;84.90
30999;DHT22;20549;50.042;8.968;2024-01-16T02:40:59;2.60;85.00
30999;DHT22;20549;50.042;8.968;2024-01-16T02:43:25;2.60;85.00
30999;DHT22;20549;50.042;8.968;2024-01-16T02:45:52;2.60;85.20
30999;DHT22;20549;50.042;8.968;2024-01-16T02:48:19;2.70;85.30
30999;DHT22;20549;50.042;8.968;2024-01-16T02:50:45;2.70;85.40
30999;DHT22;20549;50.042;8.968;2024-01-16T02:53:12;2.80;85.50
30999;DHT22;20549;50.042;8.968;2024-01-16T02:55:38;2.80;85.50
30999;DHT22;20549;50.042;8.968;2024-01-16T02:58:05;2.90;86.50
30999;DHT22;20549;50.042;8.968;2024-01-16T03:00:31;2.90;85.70
30999;DHT22;20549;50.042;8.968;2024-01-16T03:02:58;2.90;85.70
30999;DHT22;20549;50.042;8.968;2024-01-16T03:05:25;3.00;85.70
30999;DHT22;20549;50.042;8.968;2024-01-16T03:07:51;3.00;85.70
30999;DHT22;20549;50.042;8.968;2024-01-16T03:10:18;3.10;85.70
30999;DHT22;20549;50.042;8.968;2024-01-16T03:12:44;3.10;85.70
30999;DHT22;20549;50.042;8.968;2024-01-16T03:15:11;3.20;85.70
30999;DHT22;20549;50.042;8.968;2024-01-16T03:17:38;3.20;85.60
30999;DHT22;20549;50.042;8.968;2024-01-16T03:20:04;3.30;85.50
30999;DHT22;20549;50.042;8.968;2024-01-16T03:22:31;3.30;85.40
30999;DHT22;20549;50.042;8.968;2024-01-16T03:24:57;3.40;85.40
30999;DHT22;20549;50.042;8.968;2024-01-16T03:27:24;3.40;85.20
30999;DHT22;20549;50.042;8.968;2024-01-16T03:29:51;3.40;85.00
30999;DHT22;20549;50.042;8.968;2024-01-16T03:32:17;3.40;84.80
30999;DHT22;20549;50.042;8.968;2024-01-16T03:34:44;3.40;84.70
30999;DHT22;20549;50.042;8.968;2024-01-16T03:37:10;3.50;84.50
30999;DHT22;20549;50.042;8.968;2024-01-16T03:39:37;3.50;84.30
30999;DHT22;20549;50.042;8.968;2024-01-16T03:42:03;3.50;84.10
30999;DHT22;20549;50.042;8.968;2024-01-16T03:44:30;3.40;83.90
30999;DHT22;20549;50.042;8.968;2024-01-16T03:46:57;3.40;83.90
30999;DHT22;20549;50.042;8.968;2024-01-16T03:49:23;3.40;83.70
30999;DHT22;20549;50.042;8.968;2024-01-16T03:51:50;3.40;83.70
30999;DHT22;20549;50.042;8.968;2024-01-16T03:54:16;3.30;83.60
30999;DHT22;20549;50.042;8.968;2024-01-16T03:56:43;3.30;83.50
30999;DHT22;20549;50.042;8.968;2024-01-16T03:59:10;3.20;83.50
30999;DHT22;20549;50.042;8.968;2024-01-16T04:01:36;3.20;83.30
30999;DHT22;20549;50.042;8.968;2024-01-16T04:04:03;3.10;83.30
30999;DHT22;20549;50.042;8.968;2024-01-16T04:06:29;3.10;83.40
30999;DHT22;20549;50.042;8.968;2024-01-16T04:08:56;3.00;83.40
30999;DHT22;20549;50.042;8.968;2024-01-16T04:11:22;3.00;83.50
30999;DHT22;20549;50.042;8.968;2024-01-16T04:13:49;2.90;83.50
30999;DHT22;20549;50.042;8.968;2024-01-16T04:16:16;2.90;83.60
30999;DHT22;20549;50.042;8.968;2024-01-16T04:18:43;2.80;83.50
30999;DHT22;20549;50.042;8.968;2024-01-16T04:21:09;2.80;83.60
30999;DHT22;20549;50.042;8.968;2024-01-16T04:23:35;2.80;83.70
30999;DHT22;20549;50.042;8.968;2024-01-16T04:26:02;2.70;83.70
30999;DHT22;20549;50.042;8.968;2024-01-16T04:28:29;2.70;83.90
30999;DHT22;20549;50.042;8.968;2024-01-16T04:30:55;2.70;83.90
30999;DHT22;20549;50.042;8.968;2024-01-16T04:33:22;2.60;84.10
30999;DHT22;20549;50.042;8.968;2024-01-16T04:35:48;2.60;84.20
30999;DHT22;20549;50.042;8.968;2024-01-16T04:38:15;2.60;84.20
30999;DHT22;20549;50.042;8.968;2024-01-16T04:40:41;2.50;84.20
30999;DHT22;20549;50.042;8.968;2024-01-16T04:43:08;2.60;84.40
30999;DHT22;20549;50.042;8.968;2024-01-16T04:45:35;2.50;84.50
30999;DHT22;20549;50.042;8.968;2024-01-16T04:48:01;2.50;84.60
30999;DHT22;20549;50.042;8.968;2024-01-16T04:50:28;2.50;84.70
30999;DHT22;20549;50.042;8.968;2024-01-16T04:52:54;2.50;84.80
30999;DHT22;20549;50.042;8.968;2024-01-16T04:55:21;2.50;84.90
30999;DHT22;20549;50.042;8.968;2024-01-16T04:57:48;2.50;85.10
30999;DHT22;20549;50.042;8.968;2024-01-16T05:00:14;2.50;85.20
30999;DHT22;20549;50.042;8.968;2024-01-16T05:02:41;2.50;85.20
30999;DHT22;20549;50.042;8.968;2024-01-16T05:05:07;2.50;85.30
30999;DHT22;20549;50.042;8.968;2024-01-16T05:07:34;2.50;85.40
30999;DHT22;20549;50.042;8.968;2024-01-16T05:10:01;2.50;85.40
30999;DHT22;20549;50.042;8.968;2024-01-16T05:12:27;2.50;85.30
30999;DHT22;20549;50.042;8.968;2024-01-16T05:14:54;2.50;85.30
30999;DHT22;20549;50.042;8.968;2024-01-16T05:17:20;2.50;85.40
30999;DHT22;20549;50.042;8.968;2024-01-16T05:19:47;2.50;85.50
30999;DHT22;20549;50.042;8.968;2024-01-16T05:22:13;2.50;85.50
30999;DHT22;20549;50.042;8.968;2024-01-16T05:24:40;2.50;85.50
30999;DHT22;20549;50.042;8.968;2024-01-16T05:27:07;2.50;85.60
30999;DHT22;20549;50.042;8.968;2024-01-16T05:29:33;2.50;85.50
30999;DHT22;20549;50.042;8.968;2024-01-16T05:32:00;2.50;85.50
30999;DHT22;20549;50.042;8.968;2024-01-16T05:34:26;2.50;85.50
30999;DHT22;20549;50.042;8.968;2024-01-16T05:36:53;2.40;85.50
30999;DHT22;20549;50.042;8.968;2024-01-16T05:39:19;2.40;85.70
30999;DHT22;20549;50.042;8.968;2024-01-16T05:41:46;2.40;85.50
30999;DHT22;20549;50.042;8.968;2024-01-16T05:44:13;2.40;85.50
30999;DHT22;20549;50.042;8.968;2024-01-16T05:46:39;2.40;85.60
30999;DHT22;20549;50.042;8.968;2024-01-16T05:49:06;2.40;85.70
30999;DHT22;20549;50.042;8.968;2024-01-16T05:51:32;2.30;85.80
30999;DHT22;20549;50.042;8.968;2024-01-16T05:53:59;2.30;85.80
30999;DHT22;20549;50.042;8.968;2024-01-16T05:56:26;2.30;86.00
30999;DHT22;20549;50.042;8.968;2024-01-16T05:58:52;2.40;86.60
30999;DHT22;20549;50.042;8.968;2024-01-16T06:01:19;2.30;86.10
30999;DHT22;20549;50.042;8.968;2024-01-16T06:03:45;2.30;86.20
30999;DHT22;20549;50.042;8.968;2024-01-16T06:06:12;2.30;86.10
30999;DHT22;20549;50.042;8.968;2024-01-16T06:08:38;2.30;86.40
30999;DHT22;20549;50.042;8.968;2024-01-16T06:11:05;2.30;86.30
30999;DHT22;20549;50.042;8.968;2024-01-16T06:13:32;2.30;86.30
30999;DHT22;20549;50.042;8.968;2024-01-16T06:15:58;2.30;86.30
30999;DHT22;20549;50.042;8.968;2024-01-16T06:18:25;2.30;86.30
30999;DHT22;20549;50.042;8.968;2024-01-16T06:20:51;2.30;86.40
30999;DHT22;20549;50.042;8.968;2024-01-16T06:23:18;2.30;86.30
30999;DHT22;20549;50.042;8.968;2024-01-16T06:25:45;2.20;87.20
30999;DHT22;20549;50.042;8.968;2024-01-16T06:28:11;2.20;86.30
30999;DHT22;20549;50.042;8.968;2024-01-16T06:30:38;2.20;86.30
30999;DHT22;20549;50.042;8.968;2024-01-16T06:33:04;2.20;86.40
30999;DHT22;20549;50.042;8.968;2024-01-16T06:35:31;2.20;86.40
30999;DHT22;20549;50.042;8.968;2024-01-16T06:37:57;2.20;86.40
30999;DHT22;20549;50.042;8.968;2024-01-16T06:40:24;2.20;86.40
30999;DHT22;20549;50.042;8.968;2024-01-16T06:42:51;2.10;86.40
30999;DHT22;20549;50.042;8.968;2024-01-16T06:45:17;2.10;86.40
30999;DHT22;20549;50.042;8.968;2024-01-16T06:47:44;2.10;86.40
30999;DHT22;20549;50.042;8.968;2024-01-16T06:50:10;2.10;86.60
30999;DHT22;20549;50.042;8.968;2024-01-16T06:52:37;2.10;86.60
30999;DHT22;20549;50.042;8.968;2024-01-16T06:55:04;2.10;86.60
30999;DHT22;20549;50.042;8.968;2024-01-16T06:57:30;2.10;86.60
30999;DHT22;20549;50.042;8.968;2024-01-16T06:59:57;2.00;86.40
30999;DHT22;20549;50.042;8.968;2024-01-16T07:02:23;2.00;86.30
30999;DHT22;20549;50.042;8.968;2024-01-16T07:04:50;2.00;86.30
30999;DHT22;20549;50.042;8.968;2024-01-16T07:07:16;1.90;86.30
30999;DHT22;20549;50.042;8.968;2024-01-16T07:09:43;1.90;86.40
30999;DHT22;20549;50.042;8.968;2024-01-16T07:12:10;1.80;86.30
30999;DHT22;20549;50.042;8.968;2024-01-16T07:14:36;1.80;86.40
30999;DHT22;20549;50.042;8.968;2024-01-16T07:17:03;1.80;86.50
30999;DHT22;20549;50.042;8.968;2024-01-16T07:19:29;1.80;86.80
30999;DHT22;20549;50.042;8.968;2024-01-16T07:21:56;1.70;86.70
30999;DHT22;20549;50.042;8.968;2024-01-16T07:24:23;1.70;86.80
30999;DHT22;20549;50.042;8.968;2024-01-16T07:26:49;1.70;87.00
30999;DHT22;20549;50.042;8.968;2024-01-16T07:29:16;1.60;87.00
30999;DHT22;20549;50.042;8.968;2024-01-16T07:31:42;1.60;87.10
30999;DHT22;20549;50.042;8.968;2024-01-16T07:34:09;1.60;87.40
30999;DHT22;20549;50.042;8.968;2024-01-16T07:36:35;1.60;87.70
30999;DHT22;20549;50.042;8.968;2024-01-16T07:39:02;1.60;87.70
30999;DHT22;20549;50.042;8.968;2024-01-16T07:41:29;1.60;87.90
30999;DHT22;20549;50.042;8.968;2024-01-16T07:43:55;1.60;87.90
30999;DHT22;20549;50.042;8.968;2024-01-16T07:46:22;1.60;88.10
30999;DHT22;20549;50.042;8.968;2024-01-16T07:48:48;1.60;88.20
30999;DHT22;20549;50.042;8.968;2024-01-16T07:51:15;1.60;88.30
30999;DHT22;20549;50.042;8.968;2024-01-16T07:53:42;1.60;88.50
30999;DHT22;20549;50.042;8.968;2024-01-16T07:56:08;1.70;88.70
30999;DHT22;20549;50.042;8.968;2024-01-16T07:58:35;1.70;88.90
30999;DHT22;20549;50.042;8.968;2024-01-16T08:01:01;1.70;89.10
30999;DHT22;20549;50.042;8.968;2024-01-16T08:03:28;1.70;89.20
30999;DHT22;20549;50.042;8.968;2024-01-16T08:05:54;1.80;88.60
30999;DHT22;20549;50.042;8.968;2024-01-16T08:08:21;1.80;89.50
30999;DHT22;20549;50.042;8.968;2024-01-16T08:10:48;1.90;89.70
30999;DHT22;20549;50.042;8.968;2024-01-16T08:13:14;1.90;89.70
30999;DHT22;20549;50.042;8.968;2024-01-16T08:15:41;2.00;89.70
30999;DHT22;20549;50.042;8.968;2024-01-16T08:18:07;2.10;89.90
30999;DHT22;20549;50.042;8.968;2024-01-16T08:20:34;2.20;90.00
30999;DHT22;20549;50.042;8.968;2024-01-16T08:23:01;2.20;90.00
30999;DHT22;20549;50.042;8.968;2024-01-16T08:25:27;2.30;90.00
30999;DHT22;20549;50.042;8.968;2024-01-16T08:27:54;2.40;89.90
30999;DHT22;20549;50.042;8.968;2024-01-16T08:30:20;2.50;89.70
30999;DHT22;20549;50.042;8.968;2024-01-16T08:32:47;2.50;89.40
30999;DHT22;20549;50.042;8.968;2024-01-16T08:35:13;2.60;89.20
30999;DHT22;20549;50.042;8.968;2024-01-16T08:37:40;2.70;89.10
30999;DHT22;20549;50.042;8.968;2024-01-16T08:40:07;2.80;89.00
30999;DHT22;20549;50.042;8.968;2024-01-16T08:42:33;2.80;88.90
30999;DHT22;20549;50.042;8.968;2024-01-16T08:45:00;2.90;88.90
30999;DHT22;20549;50.042;8.968;2024-01-16T08:47:26;3.00;88.90
30999;DHT22;20549;50.042;8.968;2024-01-16T08:49:53;3.00;88.80
30999;DHT22;20549;50.042;8.968;2024-01-16T08:52:20;3.10;88.80
30999;DHT22;20549;50.042;8.968;2024-01-16T08:54:47;3.20;88.90
30999;DHT22;20549;50.042;8.968;2024-01-16T08:57:13;3.30;89.00
30999;DHT22;20549;50.042;8.968;2024-01-16T08:59:40;3.40;88.90
30999;DHT22;20549;50.042;8.968;2024-01-16T09:02:06;3.50;88.80
30999;DHT22;20549;50.042;8.968;2024-01-16T09:04:33;3.60;88.70
30999;DHT22;20549;50.042;8.968;2024-01-16T09:06:59;3.70;88.60
30999;DHT22;20549;50.042;8.968;2024-01-16T09:09:26;3.80;88.40
30999;DHT22;20549;50.042;8.968;2024-01-16T09:11:52;3.90;88.20
30999;DHT22;20549;50.042;8.968;2024-01-16T09:14:19;4.00;87.80
30999;DHT22;20549;50.042;8.968;2024-01-16T09:16:45;4.10;87.50
30999;DHT22;20549;50.042;8.968;2024-01-16T09:19:12;4.20;87.20
30999;DHT22;20549;50.042;8.968;2024-01-16T09:21:39;4.20;86.80
30999;DHT22;20549;50.042;8.968;2024-01-16T09:24:05;4.30;86.60
30999;DHT22;20549;50.042;8.968;2024-01-16T09:26:32;4.30;87.10
30999;DHT22;20549;50.042;8.968;2024-01-16T09:28:58;4.40;85.90
30999;DHT22;20549;50.042;8.968;2024-01-16T09:31:25;4.40;85.50
30999;DHT22;20549;50.042;8.968;2024-01-16T09:33:52;4.50;85.30
30999;DHT22;20549;50.042;8.968;2024-01-16T09:36:18;4.50;85.00
30999;DHT22;20549;50.042;8.968;2024-01-16T09:38:45;4.50;84.70
30999;DHT22;20549;50.042;8.968;2024-01-16T09:41:11;4.60;84.60
30999;DHT22;20549;50.042;8.968;2024-01-16T09:43:38;4.60;84.60
30999;DHT22;20549;50.042;8.968;2024-01-16T09:46:04;4.70;84.80
30999;DHT22;20549;50.042;8.968;2024-01-16T09:48:31;4.70;84.60
30999;DHT22;20549;50.042;8.968;2024-01-16T09:50:58;4.80;84.40
30999;DHT22;20549;50.042;8.968;2024-01-16T09:53:24;4.90;84.20
30999;DHT22;20549;50.042;8.968;2024-01-16T09:55:51;4.90;83.90
30999;DHT22;20549;50.042;8.968;2024-01-16T09:58:18;5.00;83.80
30999;DHT22;20549;50.042;8.968;2024-01-16T10:00:44;5.00;83.60
30999;DHT22;20549;50.042;8.968;2024-01-16T10:03:14;5.10;83.50
30999;DHT22;20549;50.042;8.968;2024-01-16T10:05:43;5.20;83.30
30999;DHT22;20549;50.042;8.968;2024-01-16T10:08:10;5.20;83.00
30999;DHT22;20549;50.042;8.968;2024-01-16T10:10:36;5.30;82.70
30999;DHT22;20549;50.042;8.968;2024-01-16T10:13:03;5.30;82.50
30999;DHT22;20549;50.042;8.968;2024-01-16T10:15:29;5.40;82.50
30999;DHT22;20549;50.042;8.968;2024-01-16T10:17:56;5.40;82.60
30999;DHT22;20549;50.042;8.968;2024-01-16T10:20:32;5.50;82.50
30999;DHT22;20549;50.042;8.968;2024-01-16T10:22:58;5.60;82.20
30999;DHT22;20549;50.042;8.968;2024-01-16T10:25:25;5.60;81.90
30999;DHT22;20549;50.042;8.968;2024-01-16T10:28:04;5.70;81.70
30999;DHT22;20549;50.042;8.968;2024-01-16T10:30:30;5.70;81.40
30999;DHT22;20549;50.042;8.968;2024-01-16T10:33:00;5.70;81.10
30999;DHT22;20549;50.042;8.968;2024-01-16T10:35:24;5.80;81.00
30999;DHT22;20549;50.042;8.968;2024-01-16T10:37:50;5.80;80.40
30999;DHT22;20549;50.042;8.968;2024-01-16T10:40:17;5.80;80.30
30999;DHT22;20549;50.042;8.968;2024-01-16T10:42:44;5.80;80.10
30999;DHT22;20549;50.042;8.968;2024-01-16T10:45:14;5.80;79.70
30999;DHT22;20549;50.042;8.968;2024-01-16T10:47:37;5.70;79.70
30999;DHT22;20549;50.042;8.968;2024-01-16T10:50:04;5.70;79.70
30999;DHT22;20549;50.042;8.968;2024-01-16T10:52:30;5.80;79.70
30999;DHT22;20549;50.042;8.968;2024-01-16T10:54:56;5.80;79.60
30999;DHT22;20549;50.042;8.968;2024-01-16T10:57:24;5.80;79.60
30999;DHT22;20549;50.042;8.968;2024-01-16T10:59:59;5.80;79.50
30999;DHT22;20549;50.042;8.968;2024-01-16T11:02:22;5.80;79.60
30999;DHT22;20549;50.042;8.968;2024-01-16T11:04:48;5.80;79.70
30999;DHT22;20549;50.042;8.968;2024-01-16T11:07:15;5.90;79.60
30999;DHT22;20549;50.042;8.968;2024-01-16T11:09:41;5.90;79.60
30999;DHT22;20549;50.042;8.968;2024-01-16T11:12:08;5.90;79.40
30999;DHT22;20549;50.042;8.968;2024-01-16T11:14:35;6.00;79.20
30999;DHT22;20549;50.042;8.968;2024-01-16T11:17:01;6.00;79.00
30999;DHT22;20549;50.042;8.968;2024-01-16T11:19:28;6.00;78.80
30999;DHT22;20549;50.042;8.968;2024-01-16T11:21:54;6.10;78.80
30999;DHT22;20549;50.042;8.968;2024-01-16T11:24:21;6.10;78.80
30999;DHT22;20549;50.042;8.968;2024-01-16T11:26:48;6.20;78.50
30999;DHT22;20549;50.042;8.968;2024-01-16T11:31:53;6.20;78.20
30999;DHT22;20549;50.042;8.968;2024-01-16T11:37:08;6.20;78.20
30999;DHT22;20549;50.042;8.968;2024-01-16T11:39:34;6.30;78.30
30999;DHT22;20549;50.042;8.968;2024-01-16T11:42:00;6.30;78.20
30999;DHT22;20549;50.042;8.968;2024-01-16T11:47:09;6.50;78.50
30999;DHT22;20549;50.042;8.968;2024-01-16T11:49:35;6.60;78.70
30999;DHT22;20549;50.042;8.968;2024-01-16T11:52:01;6.70;78.60
30999;DHT22;20549;50.042;8.968;2024-01-16T11:54:28;6.80;78.30
30999;DHT22;20549;50.042;8.968;2024-01-16T11:57:05;6.90;78.10
30999;DHT22;20549;50.042;8.968;2024-01-16T12:02:14;7.10;78.00
30999;DHT22;20549;50.042;8.968;2024-01-16T12:04:39;7.20;77.90
30999;DHT22;20549;50.042;8.968;2024-01-16T12:07:05;7.30;77.60
30999;DHT22;20549;50.042;8.968;2024-01-16T12:09:32;7.40;77.00
30999;DHT22;20549;50.042;8.968;2024-01-16T12:12:01;7.50;76.50
30999;DHT22;20549;50.042;8.968;2024-01-16T12:14:28;7.50;76.00
30999;DHT22;20549;50.042;8.968;2024-01-16T12:17:13;7.60;75.70
30999;DHT22;20549;50.042;8.968;2024-01-16T12:19:39;7.60;75.40
30999;DHT22;20549;50.042;8.968;2024-01-16T12:22:08;7.60;75.20
30999;DHT22;20549;50.042;8.968;2024-01-16T12:24:32;7.60;74.90
30999;DHT22;20549;50.042;8.968;2024-01-16T12:26:59;7.50;74.50
30999;DHT22;20549;50.042;8.968;2024-01-16T12:29:26;7.50;74.40
30999;DHT22;20549;50.042;8.968;2024-01-16T12:32:04;7.50;74.30
30999;DHT22;20549;50.042;8.968;2024-01-16T12:34:22;7.40;74.00
30999;DHT22;20549;50.042;8.968;2024-01-16T12:36:45;7.40;73.90
30999;DHT22;20549;50.042;8.968;2024-01-16T12:39:12;7.40;73.70
30999;DHT22;20549;50.042;8.968;2024-01-16T12:41:41;7.30;72.50
30999;DHT22;20549;50.042;8.968;2024-01-16T12:44:07;7.30;73.30
30999;DHT22;20549;50.042;8.968;2024-01-16T12:46:34;7.20;73.20
30999;DHT22;20549;50.042;8.968;2024-01-16T12:49:03;7.10;73.20
30999;DHT22;20549;50.042;8.968;2024-01-16T12:51:30;7.10;73.30
30999;DHT22;20549;50.042;8.968;2024-01-16T12:54:15;7.10;73.40
30999;DHT22;20549;50.042;8.968;2024-01-16T12:56:41;7.10;73.40
30999;DHT22;20549;50.042;8.968;2024-01-16T12:59:11;7.10;73.50
30999;DHT22;20549;50.042;8.968;2024-01-16T13:01:41;7.10;73.50
30999;DHT22;20549;50.042;8.968;2024-01-16T13:04:04;7.10;73.90
30999;DHT22;20549;50.042;8.968;2024-01-16T13:06:31;7.10;74.50
30999;DHT22;20549;50.042;8.968;2024-01-16T13:09:07;7.10;73.70
30999;DHT22;20549;50.042;8.968;2024-01-16T13:11:32;7.20;73.30
30999;DHT22;20549;50.042;8.968;2024-01-16T13:14:02;7.20;73.00
30999;DHT22;20549;50.042;8.968;2024-01-16T13:16:31;7.20;72.60
30999;DHT22;20549;50.042;8.968;2024-01-16T13:19:01;7.10;72.20
30999;DHT22;20549;50.042;8.968;2024-01-16T13:21:28;7.10;72.00
30999;DHT22;20549;50.042;8.968;2024-01-16T13:23:54;7.00;71.80
30999;DHT22;20549;50.042;8.968;2024-01-16T13:26:21;7.00;71.70
30999;DHT22;20549;50.042;8.968;2024-01-16T13:28:47;6.90;71.80
30999;DHT22;20549;50.042;8.968;2024-01-16T13:31:14;6.80;71.80
30999;DHT22;20549;50.042;8.968;2024-01-16T13:33:40;6.70;71.80
30999;DHT22;20549;50.042;8.968;2024-01-16T13:36:07;6.70;72.00
30999;DHT22;20549;50.042;8.968;2024-01-16T13:38:34;6.60;72.00
30999;DHT22;20549;50.042;8.968;2024-01-16T13:41:00;6.60;72.00
30999;DHT22;20549;50.042;8.968;2024-01-16T13:43:27;6.50;72.00
30999;DHT22;20549;50.042;8.968;2024-01-16T13:45:54;6.50;72.10
30999;DHT22;20549;50.042;8.968;2024-01-16T13:48:20;6.50;72.00
30999;DHT22;20549;50.042;8.968;2024-01-16T13:50:47;6.50;71.90
30999;DHT22;20549;50.042;8.968;2024-01-16T13:53:16;6.50;71.80
30999;DHT22;20549;50.042;8.968;2024-01-16T13:55:42;6.50;71.70
30999;DHT22;20549;50.042;8.968;2024-01-16T13:58:09;6.40;71.70
30999;DHT22;20549;50.042;8.968;2024-01-16T14:00:36;6.40;71.60
30999;DHT22;20549;50.042;8.968;2024-01-16T14:03:02;6.30;71.40
30999;DHT22;20549;50.042;8.968;2024-01-16T14:05:29;6.20;71.10
30999;DHT22;20549;50.042;8.968;2024-01-16T14:07:55;6.20;71.20
30999;DHT22;20549;50.042;8.968;2024-01-16T14:10:22;6.10;71.20
30999;DHT22;20549;50.042;8.968;2024-01-16T14:12:49;6.00;71.20
30999;DHT22;20549;50.042;8.968;2024-01-16T14:15:15;6.00;71.30
30999;DHT22;20549;50.042;8.968;2024-01-16T14:17:51;5.90;71.30
30999;DHT22;20549;50.042;8.968;2024-01-16T14:20:17;5.80;71.40
30999;DHT22;20549;50.042;8.968;2024-01-16T14:22:44;5.80;71.60
30999;DHT22;20549;50.042;8.968;2024-01-16T14:25:11;5.70;71.60
30999;DHT22;20549;50.042;8.968;2024-01-16T14:27:37;5.60;71.70
30999;DHT22;20549;50.042;8.968;2024-01-16T14:30:03;5.60;71.60
30999;DHT22;20549;50.042;8.968;2024-01-16T14:32:30;5.60;71.70
30999;DHT22;20549;50.042;8.968;2024-01-16T14:34:57;5.50;71.80
30999;DHT22;20549;50.042;8.968;2024-01-16T14:37:23;5.50;71.70
30999;DHT22;20549;50.042;8.968;2024-01-16T14:39:50;5.40;71.70
30999;DHT22;20549;50.042;8.968;2024-01-16T14:42:16;5.40;71.70
30999;DHT22;20549;50.042;8.968;2024-01-16T14:44:43;5.40;71.70
30999;DHT22;20549;50.042;8.968;2024-01-16T14:47:09;5.40;71.90
30999;DHT22;20549;50.042;8.968;2024-01-16T14:49:36;5.30;71.80
30999;DHT22;20549;50.042;8.968;2024-01-16T14:52:03;5.30;71.90
30999;DHT22;20549;50.042;8.968;2024-01-16T14:54:29;5.30;72.00
30999;DHT22;20549;50.042;8.968;2024-01-16T14:56:56;5.20;72.00
30999;DHT22;20549;50.042;8.968;2024-01-16T14:59:22;5.20;72.20
30999;DHT22;20549;50.042;8.968;2024-01-16T15:01:49;5.30;72.50
30999;DHT22;20549;50.042;8.968;2024-01-16T15:04:16;5.30;72.80
30999;DHT22;20549;50.042;8.968;2024-01-16T15:06:42;5.40;72.80
30999;DHT22;20549;50.042;8.968;2024-01-16T15:09:09;5.40;72.20
30999;DHT22;20549;50.042;8.968;2024-01-16T15:11:38;5.40;73.00
30999;DHT22;20549;50.042;8.968;2024-01-16T15:14:05;5.50;73.00
30999;DHT22;20549;50.042;8.968;2024-01-16T15:16:31;5.60;73.00
30999;DHT22;20549;50.042;8.968;2024-01-16T15:18:58;5.60;72.90
30999;DHT22;20549;50.042;8.968;2024-01-16T15:21:24;5.70;72.70
30999;DHT22;20549;50.042;8.968;2024-01-16T15:23:51;5.70;72.50
30999;DHT22;20549;50.042;8.968;2024-01-16T15:26:18;5.80;72.40
30999;DHT22;20549;50.042;8.968;2024-01-16T15:28:44;5.80;72.20
30999;DHT22;20549;50.042;8.968;2024-01-16T15:31:11;5.70;72.10
30999;DHT22;20549;50.042;8.968;2024-01-16T15:33:37;5.70;71.90
30999;DHT22;20549;50.042;8.968;2024-01-16T15:36:04;5.70;71.90
30999;DHT22;20549;50.042;8.968;2024-01-16T15:38:31;5.60;71.70
30999;DHT22;20549;50.042;8.968;2024-01-16T15:40:57;5.60;71.60
30999;DHT22;20549;50.042;8.968;2024-01-16T15:43:24;5.50;71.40
30999;DHT22;20549;50.042;8.968;2024-01-16T15:45:50;5.40;71.40
30999;DHT22;20549;50.042;8.968;2024-01-16T15:48:17;5.30;71.20
30999;DHT22;20549;50.042;8.968;2024-01-16T15:50:43;5.30;71.20
30999;DHT22;20549;50.042;8.968;2024-01-16T15:53:10;5.10;71.20